Terminal Aerodrome Forecast
Issued by NWS

Current Version | Previous Version | Text Only | Print | Product List | Glossary Off
Versions: 1 2 3 4 5 6 7 8 9 10 11 12 13 14 15 16 17 18 19 20

000
FTUS41 KRLX 041700
TAFCKB
TAF
KCKB 041740Z 0418/0518 24009G16KT P6SM SCT060
     FM050200 21002KT P6SM BKN070
     FM050800 VRB02KT P6SM VCSH BKN050
     FM051400 24007KT P6SM BKN045=

USA.gov is the U.S. government's official web portal to all federal, state and local government web resources and services.